Skip to Main Content

If you see just a black screen when trying to view Live Traffic cameras, please click inside the window to get video to play. An update to certain browsers is not allowing the video to auto-play when the window opens. 

SEARCH:
Location Air RH Dwp Precip Type Wind Speed Wind Gust Direction Pavement Temperature Date/Time
Hatem Bridge US 40 E/B 78 79 71 None 7 mph 8 mph N 92 - 92 6/19/2018 9:41:00 AM
I-270 at I-370 84 70 73 Rain Calm 4 mph W 101 - 87 6/19/2018 9:40:00 AM
I-270 at MD-109 86 75 77 None 5 mph 11 mph W 101 - 101 6/19/2018 9:40:00 AM
I-495 at American Legion Bridge 87 68 76 None Calm 8 mph W 102 - 103 6/19/2018 9:40:00 AM
I-68 at Savage Mt 76 84 71 None Calm 15 mph NW 91 - 92 6/19/2018 9:40:00 AM
I-68 at Sideling Hill 81 88 77 None Calm 4 mph SE 93 - 95 6/19/2018 9:40:00 AM
I-68 at US 219 70 100 70 None 11 mph 19 mph W 75 - 77 6/19/2018 9:40:00 AM
I-68 at WV Line 76 82 70 None 8 mph 17 mph NW 85 - 86 6/19/2018 9:40:00 AM
I-695 at I-83 86 65 73 None 4 mph 11 mph NW 100 - 98 6/19/2018 9:40:00 AM
I-695 on FSK Bridge 83 69 72 None 10 mph 12 mph NE 95 - 95 6/19/2018 9:44:00 AM
I-70 at Fred-Wash Co. 81 83 75 None 4 mph 8 mph NW 95 - 95 6/19/2018 9:40:00 AM
I-70 at I-695 85 68 73 None 6 mph 13 mph W 100 - 86 6/19/2018 9:40:00 AM
I-70 at I-81 86 71 76 None 5 mph 12 mph NW - 6/19/2018 9:40:00 AM
I-70 at MD-27 80 87 76 None Calm 5 mph N 94 - 95 6/19/2018 9:40:00 AM
I-70 at MD-32 - - - No Data Available - - No Data Available -
I-83 at MD-137 83 75 75 None 5 mph 13 mph W 98 - 98 6/19/2018 9:40:00 AM
I-95 at I-695 NE 86 65 73 None 6 mph 11 mph W 100 - 106 6/19/2018 9:44:00 AM
I-95 at Patuxent River 88 68 76 None Calm 9 mph NW 101 - 99 6/19/2018 9:40:00 AM
I-95 at Tydings Bridge 81 78 74 None Calm 4 mph NW 91 - 93 6/19/2018 9:40:00 AM
I-95/495 at I-295 91 57 74 None 6 mph 13 mph W 101 - 91 6/19/2018 9:40:00 AM
I-97 at MD-100 88 62 74 None 4 mph 11 mph NW 101 - 103 6/19/2018 9:40:00 AM
I-97 at MD-32 85 66 73 None Calm 8 mph N 100 - 93 6/19/2018 9:40:00 AM
IS 70 W of I-270 - - - No Data Available - - No Data Available 106 - 106 6/19/2018 9:40:00 AM
MD 136 @ MD 646 82 70 72 No Data Available 8 mph 16 mph NW 101 - 101 6/19/2018 9:40:00 AM
MD 20 at MD 21 85 64 72 None 5 mph 9 mph W 101 - 101 6/19/2018 9:40:00 AM
MD 23 at Meadowtree Road 79 76 71 No Data Available Calm 5 mph N 92 - 92 6/19/2018 9:40:00 AM
MD 231 at Patuxent River 87 65 74 None 4 mph 9 mph W 101 - 103 6/19/2018 9:40:00 AM
MD 24 at Jarrettsville Road 83 70 72 No Data Available 4 mph 12 mph NW 103 - 103 6/19/2018 9:40:00 AM
MD 260 at Cox Rd 85 66 72 None Calm 7 mph N 104 - 104 6/19/2018 9:40:00 AM
MD-135 at Salt Dome 73 97 72 None 7 mph 19 mph W 85 - 85 6/19/2018 9:40:00 AM
MD-140 at MD-97 82 74 73 None 7 mph 15 mph NW 101 - 99 6/19/2018 9:40:00 AM
MD-200 EB at Bonifant Rd - - - No Data Available - - No Data Available -
MD-200 WB at Muncaster Mill Rd 86 67 74 None 4 mph 11 mph W 101 - 99 6/19/2018 9:40:00 AM
MD-213 at Sassafras River 83 77 75 None 5 mph 10 mph N 99 - 99 6/19/2018 9:40:00 AM
MD-24 at Rock St Park 80 94 78 None Calm 4 mph E 90 - 90 6/19/2018 9:40:00 AM
MD-30 at PA Line 79 86 75 None 6 mph 12 mph W 96 - 96 6/19/2018 9:40:00 AM
MD-33 at Knapps Narrows Drawbridge 81 73 72 None 4 mph 8 mph W 100 - 100 6/19/2018 9:40:00 AM
MD-344 at MD-224 84 73 74 None Calm 4 mph S 88 - 88 6/19/2018 9:40:00 AM
MD-4 at Patuxent River 87 72 77 None 12 mph 16 mph NW 100 - 98 6/19/2018 9:44:00 AM
MD-404 at Choptank River 86 64 72 None Calm 10 mph NW 103 - 105 6/19/2018 9:40:00 AM
MD-43 at MD-150 - - - No Data Available - - No Data Available -
MD-51 at Oldtown Salt Dome 84 74 75 None Calm 4 mph S 93 - 93 6/19/2018 9:40:00 AM
MD-64 at MD-418 80 77 73 None 6 mph 9 mph NW 96 - 97 6/19/2018 9:40:00 AM
US 301 at MD 305 83 71 73 None 6 mph 10 mph W 100 - 97 6/19/2018 9:40:00 AM
US-1 at Baltimore / Harford Co. Line 82 73 73 None 4 mph 14 mph N 93 - 93 6/19/2018 9:40:00 AM
US-1 at Conowingo Dam 79 91 76 None Calm 4 mph N 82 - 82 6/19/2018 9:40:00 AM
US-13 at US-113 84 72 74 None 5 mph 12 mph NW 100 - 101 6/19/2018 9:40:00 AM
US-13 at US-50 85 68 74 None 5 mph 12 mph NW 106 - 106 6/19/2018 9:40:00 AM
US-15 at MD-140 85 66 73 None Calm 7 mph W 101 - 98 6/19/2018 9:40:00 AM
US-301 at MD-5 86 70 75 None Calm 8 mph SE 102 - 103 6/19/2018 9:40:00 AM
US-301 at Potomac 89 66 76 None 10 mph 13 mph NW 100 - 96 6/19/2018 9:44:00 AM
US-340 at MD-180 86 65 73 None 10 mph 18 mph W 101 - 103 6/19/2018 9:40:00 AM
US-50 at Choptank 82 79 75 None 8 mph 12 mph NW 96 - 98 6/19/2018 9:40:00 AM
US-50 at I-95 87 64 74 None 4 mph 12 mph W 102 - 102 6/19/2018 9:40:00 AM
US-50 at MD-2 83 81 77 None Calm 4 mph W 94 - 95 6/19/2018 9:40:00 AM
US-50 at MD-331 85 70 74 None 7 mph 11 mph W 100 - 99 6/19/2018 9:40:00 AM
US-50 at OC Drawbridge 86 68 74 None 10 mph 16 mph NW 101 - 101 6/19/2018 9:40:00 AM
US-50 at Table Rock Rd 70 100 70 None 5 mph 15 mph W 79 - 79 6/19/2018 9:40:00 AM
US-50 Kent Narrow Bridge 83 78 76 None 4 mph 7 mph W 92 - 94 6/19/2018 9:40:00 AM
WPL Pier 31 81 73 71 None Calm 6 mph SW 93 - 93 6/19/2018 9:40:00 AM
Location Air RH Dwp Precip Type Wind Speed Wind Gust Direction Pavement Temperature Date/Time